RCTP/TPE METAR and TAF weather

Enter ICAO airport designator
Station Type Date Time Source
RCTP METAR 2018/12/11 17:45 UTC NOAA

RCTP 111745Z 04021KT 9999 -RA SCT006 BKN010 BKN020 16/14 Q1024 NOSIG RMK A3025


Station Type Date Time Source
RCTP Decoded METAR 2018/12/11 17:45 UTC NOAA

Chiang Kai Shek, Taiwan (RCTP) 25-05N 121-13E
Dec 11, 2018 - 12:45 PM EST / 2018.12.11 1745 UTC
Wind: from the NE (040 degrees) at 24 MPH (21 KT):0
Visibility: greater than 7 mile(s):0
Sky conditions: mostly cloudy
Weather: light rain
Temperature: 60 F (16 C)
Dew Point: 57 F (14 C)
Relative Humidity: 87%
Pressure (altimeter): 30.24 in. Hg (1024 hPa)
ob: RCTP 111745Z 04021KT 9999 -RA SCT006 BKN010 BKN020 16/14 Q1024 NOSIG RMK A3025
cycle: 18

Station Type Date Time Source
RCTP TAF 2018/12/11 18:03 UTC NOAA

TAF RCTP 111700Z 1118/1224 05022G32KT 9999 FEW008 BKN017
TEMPO 1118/1124 05017G28KT FEW005 BKN011
TEMPO 1206/1212 FEW005 BKN011
TEMPO 1212/1218 07017KT FEW016 BKN032


Example: see airport list